Time;durP1;ratioP1;P1;durP2;ratioP2;P2;SDS_P1;SDS_P2;PMS_P1;PMS_P2;Temp;Humidity;BMP_temperature;BMP_pressure;BME280_temperature;BME280_humidity;BME280_pressure;Samples;Min_cycle;Max_cycle;Signal;HPM_P1;HPM_P2
2021/01/10 00:02:23;;;;;;;31.50;19.60;;;;;;;2.56;69.84;102064.41;5096474;28;20434;-77
2021/01/10 00:04:48;;;;;;;34.40;20.50;;;;;;;2.33;70.16;102063.84;5096274;28;20302;-69
2021/01/10 00:07:14;;;;;;;33.07;18.93;;;;;;;2.09;70.63;102056.31;5096283;28;20497;-71
2021/01/10 00:09:39;;;;;;;29.40;19.13;;;;;;;2.73;68.57;102053.50;5095346;28;20232;-71
2021/01/10 00:12:05;;;;;;;29.87;19.93;;;;;;;2.44;69.41;102056.81;5096746;28;20179;-72
2021/01/10 00:14:31;;;;;;;28.70;17.73;;;;;;;2.39;69.16;102050.47;5110888;28;20188;-72
2021/01/10 00:16:56;;;;;;;28.73;19.10;;;;;;;2.67;68.43;102046.28;5117352;28;20421;-71
2021/01/10 00:19:21;;;;;;;30.70;17.87;;;;;;;2.72;68.56;102051.72;5117200;28;20441;-71
2021/01/10 00:21:47;;;;;;;33.83;19.17;;;;;;;2.68;68.37;102060.94;5117208;28;20171;-72
2021/01/10 00:24:12;;;;;;;32.17;18.83;;;;;;;2.57;68.90;102053.31;5107459;28;20231;-71
2021/01/10 00:26:37;;;;;;;32.20;18.40;;;;;;;2.46;69.13;102060.38;5106847;28;20186;-71
2021/01/10 00:29:07;;;;;;;33.67;20.37;;;;;;;2.44;69.31;102059.41;5116824;28;20175;-71
2021/01/10 00:31:33;;;;;;;27.73;18.23;;;;;;;2.58;69.46;102062.84;5117313;28;20171;-71
2021/01/10 00:33:58;;;;;;;26.33;17.10;;;;;;;2.18;69.88;102064.63;5117254;28;20441;-70
2021/01/10 00:36:34;;;;;;;31.97;18.50;;;;;;;2.52;69.42;102071.06;5117569;28;20412;-71
2021/01/10 00:38:59;;;;;;;27.03;18.17;;;;;;;1.92;70.37;102083.50;5118048;28;20242;-72
2021/01/10 00:41:25;;;;;;;23.30;15.73;;;;;;;1.81;70.59;102074.16;5119173;28;20535;-71
2021/01/10 00:43:50;;;;;;;26.30;17.40;;;;;;;2.24;69.70;102070.97;5119352;28;20589;-70
2021/01/10 00:46:16;;;;;;;25.63;17.17;;;;;;;2.68;67.57;102060.06;5120639;28;20413;-70
2021/01/10 00:48:41;;;;;;;26.83;17.07;;;;;;;2.44;68.39;102064.53;5120357;28;20180;-70
2021/01/10 00:51:13;;;;;;;26.37;17.60;;;;;;;2.12;69.25;102071.94;5119249;28;20538;-71
2021/01/10 00:53:40;;;;;;;24.77;17.17;;;;;;;2.41;68.71;102072.03;5108890;28;20180;-71
2021/01/10 00:56:06;;;;;;;26.97;18.03;;;;;;;2.05;69.00;102074.03;5100421;28;20407;-70
2021/01/10 00:58:32;;;;;;;28.10;18.67;;;;;;;1.81;69.70;102076.72;5100067;28;20418;-72
2021/01/10 01:00:57;;;;;;;24.80;17.00;;;;;;;1.87;70.65;102094.25;5099873;28;21078;-71
2021/01/10 01:03:23;;;;;;;23.93;16.40;;;;;;;2.24;69.01;102086.41;5100246;28;20164;-70
2021/01/10 01:05:48;;;;;;;23.17;16.77;;;;;;;2.38;69.77;102084.72;5106095;28;20232;-71
2021/01/10 01:08:13;;;;;;;23.10;16.80;;;;;;;2.57;67.25;102087.69;5118458;28;20184;-71
2021/01/10 01:10:39;;;;;;;25.17;18.53;;;;;;;2.45;68.15;102097.19;5106225;28;20210;-70
2021/01/10 01:13:04;;;;;;;24.77;18.00;;;;;;;2.34;69.06;102097.41;5116155;28;20208;-70
2021/01/10 01:15:29;;;;;;;22.50;15.43;;;;;;;1.91;69.15;102107.44;5119175;28;20536;-70
2021/01/10 01:17:54;;;;;;;159.63;81.13;;;;;;;2.29;71.35;102096.19;5100085;28;20179;-70
2021/01/10 01:20:20;;;;;;;59.03;36.30;;;;;;;2.28;69.02;102096.97;5099501;28;20172;-71
2021/01/10 01:22:45;;;;;;;31.67;19.83;;;;;;;2.31;69.14;102102.34;5099375;28;20226;-71
2021/01/10 01:25:12;;;;;;;21.97;15.90;;;;;;;1.83;68.76;102106.91;5110451;28;20428;-70
2021/01/10 01:27:37;;;;;;;23.20;15.77;;;;;;;2.01;69.94;102108.94;5119870;28;20188;-70
2021/01/10 01:30:04;;;;;;;23.23;15.80;;;;;;;1.84;68.89;102112.94;5119800;28;20765;-69
2021/01/10 01:32:29;;;;;;;21.97;16.63;;;;;;;1.99;68.77;102113.97;5120442;28;20168;-70
2021/01/10 01:34:55;;;;;;;22.60;16.60;;;;;;;1.64;69.85;102116.75;5119834;28;20834;-70
2021/01/10 01:37:20;;;;;;;24.33;16.30;;;;;;;1.79;70.24;102114.31;5119760;28;20163;-70
2021/01/10 01:39:45;;;;;;;25.63;16.33;;;;;;;1.53;70.79;102110.88;5119535;28;20159;-70
2021/01/10 01:42:13;;;;;;;24.97;17.53;;;;;;;1.94;69.32;102099.91;5115149;28;20300;-69
2021/01/10 01:44:39;;;;;;;25.10;16.97;;;;;;;2.10;69.51;102101.81;5119858;28;20167;-73
2021/01/10 01:47:05;;;;;;;28.10;18.03;;;;;;;2.09;69.05;102088.88;5119763;28;20730;-71
2021/01/10 01:49:31;;;;;;;27.03;18.47;;;;;;;2.28;67.79;102089.25;5119293;28;20584;-72
2021/01/10 01:51:56;;;;;;;25.77;18.50;;;;;;;1.98;69.46;102094.19;5119687;27;20429;-72
2021/01/10 01:54:22;;;;;;;26.50;17.73;;;;;;;2.25;68.98;102091.66;5119257;28;20159;-72
2021/01/10 01:56:47;;;;;;;24.70;17.60;;;;;;;2.47;67.73;102091.34;5119686;28;20487;-72
2021/01/10 01:59:13;;;;;;;22.33;16.67;;;;;;;2.73;67.68;102088.66;5119379;28;20174;-72
2021/01/10 02:01:38;;;;;;;22.00;16.27;;;;;;;2.60;66.78;102089.56;5119713;28;20552;-72
2021/01/10 02:04:25;;;;;;;25.27;17.50;;;;;;;2.56;66.30;102083.34;5113526;28;20453;-71
2021/01/10 02:07:22;;;;;;;25.17;17.63;;;;;;;1.97;69.39;102097.53;5117677;27;20221;-71
2021/01/10 02:09:57;;;;;;;24.77;17.90;;;;;;;1.95;69.31;102093.06;5103439;28;20467;-71
2021/01/10 02:12:23;;;;;;;30.40;19.17;;;;;;;2.18;68.70;102099.78;5118395;28;20416;-72
2021/01/10 02:15:00;;;;;;;28.50;18.47;;;;;;;2.25;68.72;102093.34;5118783;28;20432;-72
2021/01/10 02:17:27;;;;;;;30.20;19.10;;;;;;;1.87;69.58;102091.66;5118781;28;20418;-72
2021/01/10 02:19:56;;;;;;;29.50;19.63;;;;;;;1.59;70.58;102097.53;5117933;28;20429;-71
2021/01/10 02:22:25;;;;;;;27.30;17.27;;;;;;;1.76;70.05;102088.38;5112855;28;20444;-72
2021/01/10 02:24:50;;;;;;;28.57;18.57;;;;;;;2.07;68.93;102093.00;5098176;28;20516;-72
2021/01/10 02:27:16;;;;;;;31.73;18.80;;;;;;;2.00;69.30;102090.03;5098300;28;20521;-73
2021/01/10 02:29:42;;;;;;;29.73;19.33;;;;;;;1.90;69.81;102079.91;5098491;28;20189;-72
2021/01/10 02:32:08;;;;;;;26.03;17.60;;;;;;;2.13;68.52;102067.69;5113796;28;20867;-73
2021/01/10 02:34:34;;;;;;;28.60;19.60;;;;;;;2.21;69.45;102069.09;5118156;28;20445;-70
2021/01/10 02:37:14;;;;;;;28.80;19.30;;;;;;;2.14;69.20;102069.47;5117937;28;20415;-70
2021/01/10 02:39:51;;;;;;;26.37;18.47;;;;;;;2.27;68.64;102069.47;5117646;28;20413;-69
2021/01/10 02:42:25;;;;;;;30.23;20.93;;;;;;;2.07;68.84;102065.63;5117981;28;20421;-69
2021/01/10 02:45:04;;;;;;;29.50;18.53;;;;;;;2.29;67.52;102055.03;5117732;28;20409;-71
2021/01/10 02:47:30;;;;;;;28.87;19.23;;;;;;;2.62;67.70;102055.38;5118451;28;20412;-70
2021/01/10 02:49:55;;;;;;;33.77;22.20;;;;;;;2.41;67.60;102054.03;5118258;28;20559;-69
2021/01/10 02:52:20;;;;;;;33.23;21.17;;;;;;;2.65;67.32;102044.41;5118342;28;20185;-70
2021/01/10 02:54:46;;;;;;;29.23;20.20;;;;;;;2.65;68.00;102047.88;5118639;28;20163;-70
2021/01/10 02:57:24;;;;;;;29.77;20.37;;;;;;;2.73;67.39;102042.31;5118134;28;20175;-71
2021/01/10 02:59:50;;;;;;;28.67;19.03;;;;;;;2.90;66.27;102040.81;5117326;28;20175;-70
2021/01/10 03:02:16;;;;;;;28.33;18.80;;;;;;;2.90;66.83;102040.81;5116960;28;20667;-71
2021/01/10 03:04:42;;;;;;;30.73;20.97;;;;;;;2.88;66.64;102037.22;5117550;28;20560;-71
2021/01/10 03:07:08;;;;;;;27.07;19.60;;;;;;;2.67;67.33;102037.69;5117686;28;20457;-72
2021/01/10 03:09:33;;;;;;;27.87;19.37;;;;;;;2.77;66.10;102032.28;5117827;28;20445;-71
2021/01/10 03:12:25;;;;;;;25.73;18.37;;;;;;;2.82;66.96;102033.47;5118032;28;20413;-71
2021/01/10 03:14:54;;;;;;;27.93;19.30;;;;;;;2.47;67.04;102029.56;5117936;28;20171;-71
2021/01/10 03:17:35;;;;;;;28.80;19.93;;;;;;;2.59;66.28;102026.00;5117930;28;20810;-70
2021/01/10 03:20:02;;;;;;;25.70;17.37;;;;;;;2.88;65.54;102012.34;5117744;28;20409;-70
2021/01/10 03:22:28;;;;;;;30.70;18.90;;;;;;;2.82;65.66;102012.00;5115531;28;20440;-70
2021/01/10 03:24:53;;;;;;;26.97;18.27;;;;;;;2.99;65.97;102003.59;5106159;28;20457;-70
2021/01/10 03:27:19;;;;;;;30.07;18.70;;;;;;;2.98;66.31;102006.97;5101873;28;20446;-71
2021/01/10 03:29:44;;;;;;;27.17;19.37;;;;;;;2.64;66.81;102004.91;5112805;28;20485;-72
2021/01/10 03:32:09;;;;;;;24.87;16.90;;;;;;;2.59;66.52;102006.28;5116705;28;20252;-72
2021/01/10 03:34:35;;;;;;;23.80;17.47;;;;;;;2.52;66.74;102014.44;5112089;28;20200;-74
2021/01/10 03:37:00;;;;;;;24.33;17.27;;;;;;;2.91;65.68;101999.69;5115057;28;20515;-73
2021/01/10 03:39:25;;;;;;;24.70;16.27;;;;;;;3.05;65.25;102008.25;5117174;28;20194;-73
2021/01/10 03:41:51;;;;;;;25.33;17.80;;;;;;;2.97;65.18;102004.31;5117662;28;20444;-72
2021/01/10 03:44:16;;;;;;;27.63;17.10;;;;;;;3.29;64.75;102002.75;5117716;28;20172;-68
2021/01/10 03:46:41;;;;;;;25.30;17.97;;;;;;;3.23;65.00;102002.41;5117507;28;20167;-70
2021/01/10 03:49:07;;;;;;;23.40;17.40;;;;;;;3.25;64.38;102004.28;5117622;28;20204;-71
2021/01/10 03:51:32;;;;;;;25.80;17.83;;;;;;;2.92;65.84;102004.00;5117911;28;20541;-67
2021/01/10 03:53:58;;;;;;;26.97;17.23;;;;;;;3.10;65.22;102003.34;5115130;28;20254;-70
2021/01/10 03:56:24;;;;;;;25.43;16.87;;;;;;;3.25;64.35;102011.09;5115644;28;20259;-70
2021/01/10 03:58:49;;;;;;;21.50;16.33;;;;;;;3.17;64.63;102010.66;5107760;28;20262;-70
2021/01/10 04:01:15;;;;;;;25.40;18.10;;;;;;;2.84;65.76;102000.06;5117442;28;20816;-71
2021/01/10 04:03:40;;;;;;;27.07;18.90;;;;;;;2.73;66.05;101998.53;5117506;28;20168;-69
2021/01/10 04:06:05;;;;;;;26.97;19.83;;;;;;;2.90;65.85;101997.88;5117996;28;20187;-70
2021/01/10 04:08:30;;;;;;;27.97;17.20;;;;;;;2.63;66.44;101997.97;5117326;28;20187;-74
2021/01/10 04:10:56;;;;;;;25.07;16.77;;;;;;;8.63;66.84;101988.97;5117387;28;20288;-61
2021/01/10 04:13:21;;;;;;;22.70;16.20;;;;;;;5.61;62.28;101995.63;5117832;28;20168;-77
2021/01/10 04:15:46;;;;;;;23.97;18.60;;;;;;;3.77;63.22;102010.72;5115978;28;20451;-73
2021/01/10 04:18:12;;;;;;;24.63;17.87;;;;;;;2.48;67.02;102013.34;5112894;28;20172;-72
2021/01/10 04:20:37;;;;;;;25.10;17.67;;;;;;;2.41;68.24;102012.84;5101499;28;20506;-72
2021/01/10 04:23:02;;;;;;;27.43;19.40;;;;;;;2.11;70.00;102012.66;5101077;28;20313;-73
2021/01/10 04:25:27;;;;;;;31.10;20.03;;;;;;;1.73;71.47;102011.94;5100990;28;20168;-73
2021/01/10 04:27:53;;;;;;;27.37;18.63;;;;;;;1.99;70.24;102013.66;5101258;28;20192;-72
2021/01/10 04:30:18;;;;;;;32.10;21.30;;;;;;;1.71;71.25;102015.22;5100554;28;20492;-73
2021/01/10 04:32:44;;;;;;;30.20;20.87;;;;;;;1.74;71.28;102020.56;5100987;28;20187;-73
2021/01/10 04:35:10;;;;;;;31.37;19.60;;;;;;;1.72;71.47;102032.41;5101022;28;20441;-72
2021/01/10 04:37:35;;;;;;;29.20;19.60;;;;;;;1.51;71.93;102032.75;5100808;28;20501;-74
2021/01/10 04:40:00;;;;;;;32.63;20.97;;;;;;;1.67;71.31;102030.41;5100636;28;20168;-73
2021/01/10 04:42:26;;;;;;;35.40;20.77;;;;;;;1.87;70.99;102020.59;5101048;28;20180;-72
2021/01/10 04:44:52;;;;;;;30.50;19.60;;;;;;;1.48;72.61;102020.59;5099903;28;20165;-74
2021/01/10 04:47:18;;;;;;;36.80;22.73;;;;;;;1.54;71.38;102014.97;5099853;28;20168;-73
2021/01/10 04:49:44;;;;;;;33.73;18.90;;;;;;;1.76;72.58;102013.81;5100075;28;20928;-73
2021/01/10 04:52:09;;;;;;;31.57;20.90;;;;;;;1.40;72.49;102008.91;5099986;28;20175;-73
2021/01/10 04:54:39;;;;;;;31.23;20.10;;;;;;;1.82;71.83;102017.69;5099990;28;20229;-73
2021/01/10 04:57:07;;;;;;;33.30;21.30;;;;;;;1.28;72.73;102021.81;5100269;28;20164;-73
2021/01/10 04:59:32;;;;;;;34.50;23.17;;;;;;;1.20;73.10;102017.84;5100483;28;20410;-73
2021/01/10 05:02:00;;;;;;;35.80;21.80;;;;;;;1.44;72.51;102013.47;5099738;28;20424;-73
2021/01/10 05:04:28;;;;;;;37.77;22.17;;;;;;;1.67;71.60;102009.84;5103302;28;20211;-72
2021/01/10 05:06:54;;;;;;;38.00;22.80;;;;;;;1.73;72.37;102003.34;5101564;28;20414;-74
2021/01/10 05:09:19;;;;;;;34.87;22.00;;;;;;;1.71;71.46;102002.38;5102955;28;20422;-72
2021/01/10 05:11:44;;;;;;;35.90;22.03;;;;;;;2.18;70.42;101995.16;5100579;28;20470;-73
2021/01/10 05:14:10;;;;;;;36.87;21.90;;;;;;;1.91;70.69;101995.94;5099157;28;20215;-74
2021/01/10 05:16:35;;;;;;;38.00;20.50;;;;;;;1.58;71.99;101995.50;5099850;28;20172;-73
2021/01/10 05:19:01;;;;;;;39.30;23.93;;;;;;;2.15;70.62;101988.91;5100382;28;20205;-73
2021/01/10 05:21:27;;;;;;;35.30;21.33;;;;;;;2.29;69.00;101980.41;5099917;28;20172;-72
2021/01/10 05:23:53;;;;;;;33.17;21.43;;;;;;;2.19;69.71;101980.59;5099808;28;20496;-74
2021/01/10 05:26:19;;;;;;;34.00;22.20;;;;;;;2.53;69.58;101977.59;5101338;28;20157;-74
2021/01/10 05:28:45;;;;;;;31.27;18.83;;;;;;;2.47;68.91;101980.66;5101303;28;20438;-73
2021/01/10 05:31:11;;;;;;;35.40;22.37;;;;;;;2.83;67.49;101976.00;5100068;28;20601;-73
2021/01/10 05:33:48;;;;;;;33.50;21.20;;;;;;;2.76;66.69;101971.31;5099926;28;20646;-74
2021/01/10 05:36:24;;;;;;;35.23;20.90;;;;;;;2.54;68.63;101974.22;5099605;28;20168;-73
2021/01/10 05:38:49;;;;;;;30.43;20.53;;;;;;;2.10;69.00;101983.50;5099539;28;20718;-74
2021/01/10 05:41:15;;;;;;;35.37;20.40;;;;;;;2.42;69.15;101978.59;5099188;28;20418;-73
2021/01/10 05:43:57;;;;;;;32.80;19.27;;;;;;;2.57;69.59;101968.38;5098598;28;20255;-73
2021/01/10 05:46:22;;;;;;;32.70;18.50;;;;;;;2.66;67.92;101962.09;5099327;28;20407;-73
2021/01/10 05:48:47;;;;;;;26.73;16.60;;;;;;;2.73;67.45;101965.06;5098557;28;20835;-73
2021/01/10 05:51:13;;;;;;;27.90;17.07;;;;;;;2.60;67.80;101966.88;5099229;28;20192;-74
2021/01/10 05:53:41;;;;;;;24.07;15.27;;;;;;;2.83;67.95;101963.13;5099244;28;20168;-74
2021/01/10 05:56:07;;;;;;;26.17;16.50;;;;;;;2.85;67.59;101961.53;5099066;28;20172;-73
2021/01/10 05:58:32;;;;;;;24.47;15.27;;;;;;;2.56;67.65;101962.34;5099505;28;20421;-74
2021/01/10 06:01:18;;;;;;;30.40;17.47;;;;;;;2.30;68.98;101961.59;5098920;28;20306;-73
2021/01/10 06:03:43;;;;;;;28.73;17.10;;;;;;;2.74;68.26;101962.56;5097849;28;20225;-73
2021/01/10 06:06:09;;;;;;;27.60;17.53;;;;;;;3.00;67.80;101955.53;5098782;28;20514;-73
2021/01/10 06:08:38;;;;;;;33.00;18.67;;;;;;;3.17;66.56;101941.97;5098722;28;20182;-73
2021/01/10 06:11:16;;;;;;;34.60;21.30;;;;;;;2.97;67.88;101951.09;5098823;28;20557;-74
2021/01/10 06:13:48;;;;;;;33.73;19.90;;;;;;;2.64;68.28;101955.09;5098779;28;20437;-74
2021/01/10 06:16:18;;;;;;;32.60;20.07;;;;;;;3.11;66.68;101951.94;5098749;28;20493;-74
2021/01/10 06:18:44;;;;;;;33.67;19.70;;;;;;;3.30;65.43;101940.13;5098816;28;20410;-74
2021/01/10 06:21:19;;;;;;;30.43;19.37;;;;;;;3.14;67.68;101951.19;5098688;28;20415;-74
2021/01/10 06:23:52;;;;;;;33.07;19.50;;;;;;;3.14;67.24;101952.09;5098532;28;20468;-73
2021/01/10 06:26:22;;;;;;;28.87;18.73;;;;;;;3.04;67.70;101962.66;5098572;28;20421;-73
2021/01/10 06:29:04;;;;;;;32.73;20.50;;;;;;;2.94;67.63;101957.75;5097776;28;20410;-74
2021/01/10 06:31:36;;;;;;;35.13;20.47;;;;;;;3.01;68.17;101958.19;5097351;28;20773;-73
2021/01/10 06:34:09;;;;;;;29.20;18.50;;;;;;;2.79;68.41;101960.31;5098279;28;20434;-74
2021/01/10 06:36:39;;;;;;;31.33;19.60;;;;;;;2.89;67.82;101961.75;5097647;28;20433;-74
2021/01/10 06:39:10;;;;;;;32.60;19.20;;;;;;;2.69;68.61;101962.31;5098541;28;20456;-73
2021/01/10 06:41:35;;;;;;;36.10;21.40;;;;;;;3.11;68.09;101966.50;5098460;28;20426;-73
2021/01/10 06:44:03;;;;;;;30.20;19.80;;;;;;;2.66;69.09;101966.38;5098466;28;20662;-73
2021/01/10 06:46:29;;;;;;;27.80;19.17;;;;;;;2.46;69.09;101959.97;5098328;28;20581;-73
2021/01/10 06:48:54;;;;;;;29.90;20.70;;;;;;;2.97;68.07;101955.38;5098748;28;20515;-72
2021/01/10 06:51:24;;;;;;;34.63;21.83;;;;;;;2.69;68.56;101959.72;5098032;28;20227;-73
2021/01/10 06:53:50;;;;;;;32.50;19.60;;;;;;;2.48;69.55;101958.41;5098159;28;20476;-74
2021/01/10 06:56:16;;;;;;;33.97;20.80;;;;;;;2.67;68.59;101960.44;5097687;28;20406;-73
2021/01/10 06:59:05;;;;;;;30.07;18.83;;;;;;;3.13;67.08;101958.06;5097984;28;20203;-73
2021/01/10 07:01:45;;;;;;;31.97;20.50;;;;;;;3.10;67.59;101956.97;5097623;28;20418;-73
2021/01/10 07:04:11;;;;;;;29.30;19.20;;;;;;;2.96;68.66;101958.72;5097886;28;20425;-74
2021/01/10 07:06:46;;;;;;;33.80;21.50;;;;;;;3.39;67.24;101950.97;5098097;28;20426;-73
2021/01/10 07:09:12;;;;;;;30.30;21.10;;;;;;;3.30;67.87;101953.00;5098116;28;20199;-74
2021/01/10 07:11:38;;;;;;;31.87;21.63;;;;;;;3.14;68.55;101952.09;5097800;28;20519;-73
2021/01/10 07:14:03;;;;;;;30.67;19.30;;;;;;;3.14;67.97;101946.97;5097864;28;20260;-73
2021/01/10 07:16:28;;;;;;;29.93;19.70;;;;;;;3.12;67.20;101952.81;5097458;28;20424;-75
2021/01/10 07:19:06;;;;;;;29.47;19.77;;;;;;;3.39;67.12;101947.50;5103409;28;20184;-74
2021/01/10 07:21:39;;;;;;;28.20;18.67;;;;;;;3.25;67.06;101950.16;5097687;28;20183;-74
2021/01/10 07:24:13;;;;;;;27.13;18.40;;;;;;;3.32;67.07;101954.00;5097534;28;20458;-75
2021/01/10 07:26:43;;;;;;;28.13;18.03;;;;;;;3.54;67.03;101946.72;5097779;28;20422;-73
2021/01/10 07:29:27;;;;;;;28.43;19.13;;;;;;;3.01;68.14;101945.31;5097449;28;20831;-74
2021/01/10 07:31:57;;;;;;;26.67;17.07;;;;;;;2.94;67.67;101943.19;5097399;28;20426;-76
2021/01/10 07:34:22;;;;;;;25.90;16.50;;;;;;;3.53;67.23;101944.03;5097430;28;20449;-75
2021/01/10 07:36:50;;;;;;;25.10;16.53;;;;;;;3.08;68.61;101954.31;5096850;28;20414;-75
2021/01/10 07:39:20;;;;;;;32.53;19.33;;;;;;;3.34;67.04;101950.72;5097370;28;20876;-74
2021/01/10 07:41:45;;;;;;;26.00;17.73;;;;;;;3.74;65.99;101944.38;5097756;28;20532;-74
2021/01/10 07:44:11;;;;;;;22.13;14.90;;;;;;;3.22;67.78;101939.69;5097232;28;20459;-74
2021/01/10 07:46:58;;;;;;;26.27;16.17;;;;;;;3.57;66.35;101951.13;5096627;28;20176;-74
2021/01/10 07:49:50;;;;;;;22.50;15.60;;;;;;;3.79;64.94;101942.97;5100641;28;20229;-74
2021/01/10 07:52:16;;;;;;;25.57;15.30;;;;;;;3.81;65.28;101945.63;5101515;28;20443;-74
2021/01/10 07:54:52;;;;;;;21.23;15.33;;;;;;;3.58;66.25;101952.91;5101366;28;20410;-74
2021/01/10 07:57:29;;;;;;;23.10;15.00;;;;;;;3.46;66.58;101954.78;5101434;28;20167;-74
2021/01/10 08:00:14;;;;;;;22.03;13.80;;;;;;;3.17;67.62;101951.41;5101259;28;20413;-72
2021/01/10 08:02:56;;;;;;;20.80;14.50;;;;;;;3.46;66.38;101947.06;5101274;28;20682;-74
2021/01/10 08:05:31;;;;;;;21.37;14.00;;;;;;;3.62;66.60;101943.69;5101245;28;20432;-73
2021/01/10 08:08:12;;;;;;;19.17;14.17;;;;;;;3.94;64.55;101942.94;5101278;28;20748;-73
2021/01/10 08:10:45;;;;;;;24.67;14.30;;;;;;;3.90;64.95;101940.06;5100965;28;20753;-73
2021/01/10 08:13:29;;;;;;;22.70;15.37;;;;;;;3.82;65.88;101952.56;5100973;28;20517;-74
2021/01/10 08:16:23;;;;;;;21.10;14.03;;;;;;;3.09;67.23;101950.94;5100969;28;20418;-73
2021/01/10 08:18:48;;;;;;;20.50;13.13;;;;;;;3.75;66.10;101956.47;5095364;28;20423;-74
2021/01/10 08:21:15;;;;;;;19.00;13.13;;;;;;;4.01;65.37;101949.31;5101149;28;20414;-73
2021/01/10 08:23:42;;;;;;;20.23;14.00;;;;;;;4.14;64.76;101941.47;5100611;28;20606;-75
2021/01/10 08:26:11;;;;;;;18.33;13.57;;;;;;;3.82;65.43;101947.41;5101155;28;20410;-74
2021/01/10 08:28:39;;;;;;;19.80;14.00;;;;;;;4.21;64.11;101940.09;5100790;28;20429;-74
2021/01/10 08:31:08;;;;;;;21.00;12.83;;;;;;;3.94;65.27;101939.44;5100610;28;20457;-75
2021/01/10 08:33:33;;;;;;;20.50;13.90;;;;;;;4.12;64.94;101942.19;5101161;28;20675;-75
2021/01/10 08:36:15;;;;;;;16.87;12.70;;;;;;;3.88;65.11;101945.16;5100598;28;20414;-75
2021/01/10 08:38:47;;;;;;;19.27;14.00;;;;;;;4.34;63.99;101947.72;5100643;28;20233;-74
2021/01/10 08:41:13;;;;;;;19.73;13.50;;;;;;;5.34;61.30;101946.88;5099776;28;20491;-75
2021/01/10 08:43:49;;;;;;;18.80;13.70;;;;;;;5.61;59.03;101945.59;5099768;28;20484;-75
2021/01/10 08:46:15;;;;;;;18.17;14.57;;;;;;;6.27;56.22;101941.03;5100546;28;20414;-74
2021/01/10 08:48:41;;;;;;;16.13;12.50;;;;;;;6.15;57.79;101936.16;5100355;28;20797;-74
2021/01/10 08:51:06;;;;;;;17.30;13.40;;;;;;;6.09;58.22;101933.28;5100404;28;20208;-74
2021/01/10 08:53:39;;;;;;;18.63;13.47;;;;;;;5.97;57.84;101941.31;5100223;28;20823;-75
2021/01/10 08:56:14;;;;;;;16.40;12.40;;;;;;;6.06;57.37;101936.63;5100334;28;20528;-75
2021/01/10 08:58:42;;;;;;;18.50;13.13;;;;;;;5.57;58.33;101935.09;5100166;28;20686;-74
2021/01/10 09:01:09;;;;;;;16.03;13.40;;;;;;;5.49;59.13;101936.41;5099100;28;20751;-74
2021/01/10 09:03:35;;;;;;;19.07;13.43;;;;;;;5.56;58.86;101942.75;5099452;28;20426;-75
2021/01/10 09:06:00;;;;;;;17.30;13.13;;;;;;;6.47;56.32;101935.88;5100180;28;20420;-74
2021/01/10 09:08:43;;;;;;;16.53;12.87;;;;;;;6.63;56.41;101935.78;5099563;28;20180;-74
2021/01/10 09:11:13;;;;;;;15.70;11.90;;;;;;;7.78;52.27;101933.72;5098965;28;20200;-75
2021/01/10 09:13:42;;;;;;;21.80;14.90;;;;;;;7.72;52.50;101930.84;5099186;28;20509;-74
2021/01/10 09:16:11;;;;;;;15.60;13.80;;;;;;;8.08;50.93;101931.44;5099856;28;20460;-74
2021/01/10 09:18:39;;;;;;;15.43;13.07;;;;;;;7.72;51.79;101936.94;5099843;28;20426;-74
2021/01/10 09:21:15;;;;;;;20.20;15.50;;;;;;;6.51;56.32;101930.03;5099293;28;20384;-76
2021/01/10 09:23:48;;;;;;;17.63;14.70;;;;;;;6.27;57.07;101930.66;5099762;28;20768;-73
2021/01/10 09:26:29;;;;;;;18.57;13.73;;;;;;;5.86;57.77;101929.59;5099196;28;20422;-73
2021/01/10 09:28:55;;;;;;;18.10;14.20;;;;;;;5.50;58.93;101932.13;5099749;28;20653;-72
2021/01/10 09:31:21;;;;;;;17.83;13.77;;;;;;;5.89;58.88;101929.72;5099394;28;20474;-72
2021/01/10 09:33:55;;;;;;;20.70;14.87;;;;;;;5.56;59.59;101930.75;5098701;28;20426;-74
2021/01/10 09:36:21;;;;;;;19.67;14.33;;;;;;;5.83;58.59;101937.19;5099571;28;20570;-74
2021/01/10 09:38:55;;;;;;;17.53;13.67;;;;;;;5.78;58.01;101944.72;5099764;28;20497;-75
2021/01/10 09:41:21;;;;;;;18.20;13.33;;;;;;;5.78;58.51;101952.50;5099237;28;20180;-76
2021/01/10 09:43:49;;;;;;;19.70;14.13;;;;;;;5.26;59.85;101949.88;5099379;28;20430;-75
2021/01/10 09:46:35;;;;;;;17.90;13.50;;;;;;;5.21;59.97;101950.53;5099368;28;20169;-76
2021/01/10 09:49:17;;;;;;;20.63;13.90;;;;;;;5.27;60.03;101951.69;5099219;28;20427;-76
2021/01/10 09:51:51;;;;;;;15.37;12.93;;;;;;;5.08;61.27;101958.47;5098255;28;20477;-74
2021/01/10 09:54:30;;;;;;;22.77;16.07;;;;;;;4.97;61.16;101955.34;5099034;28;20492;-76
2021/01/10 09:57:00;;;;;;;20.67;14.47;;;;;;;4.76;61.46;101956.78;5099152;28;20425;-76
2021/01/10 09:59:47;;;;;;;19.97;15.50;;;;;;;5.34;61.56;101951.16;5098886;28;20742;-76
2021/01/10 10:02:23;;;;;;;21.47;14.50;;;;;;;4.99;62.00;101956.31;5098790;28;20418;-76
2021/01/10 10:05:08;;;;;;;18.30;14.27;;;;;;;5.13;61.21;101951.84;5098741;28;20700;-75
2021/01/10 10:07:41;;;;;;;20.57;14.40;;;;;;;5.59;60.63;101947.22;5098480;28;20575;-75
2021/01/10 10:10:24;;;;;;;20.93;15.30;;;;;;;5.58;60.34;101941.16;5098319;28;20465;-74
2021/01/10 10:13:01;;;;;;;21.17;15.30;;;;;;;5.33;61.49;101944.22;5098654;28;20679;-73
2021/01/10 10:15:54;;;;;;;20.20;15.27;;;;;;;5.41;61.36;101948.06;5098806;28;20861;-73
2021/01/10 10:18:27;;;;;;;23.27;15.93;;;;;;;5.00;62.23;101947.72;5098515;28;20830;-73
2021/01/10 10:20:52;;;;;;;22.53;16.20;;;;;;;5.22;61.14;101942.00;5098514;28;20869;-72
2021/01/10 10:23:19;;;;;;;19.63;15.73;;;;;;;5.39;60.92;101942.81;5098334;28;20470;-75
2021/01/10 10:25:46;;;;;;;22.13;15.57;;;;;;;5.12;62.12;101942.31;5098743;28;20497;-75
2021/01/10 10:28:12;;;;;;;20.33;15.20;;;;;;;5.37;61.43;101934.13;5098910;28;20460;-75
2021/01/10 10:30:39;;;;;;;23.83;15.23;;;;;;;5.33;61.65;101933.88;5098165;28;20790;-75
2021/01/10 10:33:05;;;;;;;21.33;15.20;;;;;;;4.97;63.12;101932.06;5098437;28;20407;-75
2021/01/10 10:35:31;;;;;;;22.13;15.73;;;;;;;4.64;64.05;101934.69;5098685;28;20437;-76
2021/01/10 10:37:56;;;;;;;22.67;15.80;;;;;;;5.13;62.69;101926.00;5098324;28;20426;-77
2021/01/10 10:40:22;;;;;;;21.90;14.33;;;;;;;5.31;61.60;101920.00;5097986;28;20418;-75
2021/01/10 10:42:47;;;;;;;23.10;15.20;;;;;;;5.30;62.33;101918.22;5098475;28;20175;-74
2021/01/10 10:45:14;;;;;;;23.20;15.13;;;;;;;5.02;62.71;101921.97;5098294;28;20183;-73
2021/01/10 10:47:39;;;;;;;22.20;15.90;;;;;;;5.23;62.11;101911.84;5098077;28;20172;-74
2021/01/10 10:50:06;;;;;;;20.70;15.30;;;;;;;4.92;63.47;101917.16;5098157;28;20450;-74
2021/01/10 10:52:31;;;;;;;20.70;14.63;;;;;;;5.23;63.01;101914.44;5097872;28;20168;-75
2021/01/10 10:54:56;;;;;;;22.43;16.27;;;;;;;5.11;62.39;101913.81;5097948;28;20433;-75
2021/01/10 10:57:22;;;;;;;23.20;16.50;;;;;;;4.65;65.28;101915.78;5098336;28;20198;-74
2021/01/10 10:59:47;;;;;;;22.07;15.13;;;;;;;4.79;63.34;101913.03;5097920;28;20286;-76
2021/01/10 11:02:12;;;;;;;23.07;15.67;;;;;;;5.45;61.74;101898.25;5097716;28;20184;-74
2021/01/10 11:04:42;;;;;;;21.90;14.70;;;;;;;5.47;62.33;101885.44;5097908;28;20243;-75
2021/01/10 11:07:08;;;;;;;21.90;14.63;;;;;;;4.80;64.39;101894.13;5098370;28;20164;-70
2021/01/10 11:09:34;;;;;;;20.00;15.40;;;;;;;4.82;64.49;101898.59;5104911;28;20422;-72
2021/01/10 11:11:59;;;;;;;20.70;14.17;;;;;;;6.91;63.38;101895.50;5107719;28;20428;-62
2021/01/10 11:14:25;;;;;;;22.70;16.53;;;;;;;7.24;59.63;101884.81;5118053;28;20160;-71
2021/01/10 11:16:51;;;;;;;19.40;15.13;;;;;;;5.84;62.62;101882.03;5118137;28;20190;-72
2021/01/10 11:19:17;;;;;;;20.50;15.30;;;;;;;5.39;62.74;101882.47;5117861;28;20434;-74
2021/01/10 11:21:47;;;;;;;23.23;16.10;;;;;;;5.34;63.92;101894.28;5117779;28;20417;-74
2021/01/10 11:24:13;;;;;;;19.97;14.90;;;;;;;5.10;65.30;101894.84;5117382;28;20556;-75
2021/01/10 11:26:40;;;;;;;23.90;16.57;;;;;;;5.03;64.95;101898.81;5118436;28;20569;-74